Time;durP1;ratioP1;P1;durP2;ratioP2;P2;SDS_P1;SDS_P2;PMS_P1;PMS_P2;Temp;Humidity;BMP_temperature;BMP_pressure;BME280_temperature;BME280_humidity;BME280_pressure;Samples;Min_cycle;Max_cycle;Signal;HPM_P1;HPM_P2
2023/07/14 00:00:31;;;;;;;2.78;1.48;;;18.20;91.20;;;;;;4921727;29;20111;-60
2023/07/14 00:02:58;;;;;;;1.40;1.30;;;18.10;91.40;;;;;;4919904;29;20047;-59
2023/07/14 00:05:33;;;;;;;2.00;1.55;;;18.10;91.60;;;;;;4920463;29;20055;-60
2023/07/14 00:07:59;;;;;;;3.15;1.58;;;18.10;91.60;;;;;;4919490;29;20126;-59
2023/07/14 00:10:34;;;;;;;6.47;1.55;;;18.00;91.90;;;;;;4925983;29;20048;-60
2023/07/14 00:13:07;;;;;;;1.65;1.55;;;18.00;92.30;;;;;;4924438;29;20024;-60
2023/07/14 00:15:37;;;;;;;2.17;1.30;;;18.00;92.30;;;;;;4922568;29;20457;-59
2023/07/14 00:18:14;;;;;;;1.75;1.50;;;18.10;92.00;;;;;;4922564;29;20063;-59
2023/07/14 00:20:40;;;;;;;2.40;1.55;;;18.00;92.20;;;;;;4918628;29;20119;-60
2023/07/14 00:23:11;;;;;;;2.03;1.55;;;18.00;92.20;;;;;;4920276;29;20123;-60
2023/07/14 00:25:38;;;;;;;2.65;1.73;;;17.90;92.40;;;;;;4916248;29;20088;-60
2023/07/14 00:28:13;;;;;;;1.52;1.42;;;17.80;93.00;;;;;;4925987;29;20039;-60
2023/07/14 00:30:39;;;;;;;2.83;1.67;;;17.70;93.10;;;;;;4900789;29;20063;-60
2023/07/14 00:33:15;;;;;;;2.95;1.75;;;17.80;93.10;;;;;;4909336;29;20032;-60
2023/07/14 00:35:41;;;;;;;2.55;1.73;;;17.80;93.30;;;;;;4907298;29;20032;-60
2023/07/14 00:38:08;;;;;;;2.05;1.55;;;17.80;93.30;;;;;;4909559;29;20088;-60
2023/07/14 00:40:42;;;;;;;3.47;1.70;;;17.80;93.40;;;;;;4917936;29;20044;-60
2023/07/14 00:43:24;;;;;;;1.98;1.50;;;17.80;93.50;;;;;;4905452;29;20449;-60
2023/07/14 00:45:51;;;;;;;2.47;1.70;;;17.80;93.70;;;;;;4906752;29;20036;-59
2023/07/14 00:48:23;;;;;;;1.77;1.40;;;17.90;93.60;;;;;;4909183;29;20124;-60
2023/07/14 00:50:52;;;;;;;2.20;1.70;;;17.90;93.50;;;;;;4923373;29;20048;-60
2023/07/14 00:53:25;;;;;;;3.75;1.65;;;17.90;93.40;;;;;;4925647;29;20448;-60
2023/07/14 00:56:00;;;;;;;3.80;1.77;;;18.00;93.20;;;;;;4905958;29;20047;-59
2023/07/14 00:58:29;;;;;;;1.92;1.60;;;18.00;93.20;;;;;;4921674;29;20043;-59
2023/07/14 01:01:25;;;;;;;2.67;1.60;;;17.90;93.40;;;;;;4921557;29;20044;-59
2023/07/14 01:03:53;;;;;;;2.58;1.80;;;17.80;93.50;;;;;;4927279;29;20050;-60
2023/07/14 01:06:23;;;;;;;3.05;1.83;;;17.80;93.60;;;;;;4912515;29;20520;-60
2023/07/14 01:09:05;;;;;;;3.38;2.10;;;17.70;93.60;;;;;;4907728;29;20564;-60
2023/07/14 01:11:37;;;;;;;2.70;1.80;;;17.70;93.80;;;;;;4910699;29;20040;-59
2023/07/14 01:14:11;;;;;;;2.75;1.75;;;17.60;94.00;;;;;;4925495;29;20036;-59
2023/07/14 01:16:40;;;;;;;3.88;2.25;;;17.60;94.20;;;;;;4920018;29;20446;-60
2023/07/14 01:19:19;;;;;;;2.40;1.70;;;17.50;94.20;;;;;;4908248;29;20130;-60
2023/07/14 01:21:50;;;;;;;2.60;1.90;;;17.50;94.30;;;;;;4926340;29;20748;-60
2023/07/14 01:24:31;;;;;;;1.88;1.73;;;17.50;94.50;;;;;;4912204;29;20127;-60
2023/07/14 01:27:04;;;;;;;3.75;2.00;;;17.40;94.50;;;;;;4925273;29;20043;-59
2023/07/14 01:29:31;;;;;;;1.80;1.70;;;17.40;94.80;;;;;;4923582;29;20083;-59
2023/07/14 01:31:57;;;;;;;4.07;1.88;;;17.30;94.80;;;;;;4922685;29;20032;-60
2023/07/14 01:34:28;;;;;;;3.45;2.00;;;17.30;94.90;;;;;;4924192;29;20052;-60
2023/07/14 01:36:58;;;;;;;2.45;1.80;;;17.20;95.20;;;;;;4918987;29;20794;-60
2023/07/14 01:39:28;;;;;;;3.35;2.00;;;17.30;95.40;;;;;;4928189;29;20039;-60
2023/07/14 01:41:53;;;;;;;4.05;2.00;;;17.30;95.50;;;;;;4908804;29;20047;-59
2023/07/14 01:44:21;;;;;;;2.95;1.77;;;17.40;95.30;;;;;;4912038;29;20252;-60
2023/07/14 01:46:48;;;;;;;2.30;1.75;;;17.40;95.20;;;;;;4905589;29;20032;-60
2023/07/14 01:49:25;;;;;;;2.63;1.85;;;17.40;95.20;;;;;;4905535;29;20913;-60
2023/07/14 01:51:55;;;;;;;2.40;2.00;;;17.50;94.90;;;;;;4921024;29;20032;-60
2023/07/14 01:54:37;;;;;;;3.92;2.10;;;17.50;94.80;;;;;;4921592;29;20575;-60
2023/07/14 01:57:08;;;;;;;3.53;2.30;;;17.50;94.90;;;;;;4924519;29;20569;-60
2023/07/14 01:59:38;;;;;;;2.10;1.83;;;17.50;94.90;;;;;;4924732;29;20039;-59
2023/07/14 02:02:09;;;;;;;2.50;2.15;;;17.50;94.80;;;;;;4910533;29;20558;-60
2023/07/14 02:04:37;;;;;;;2.88;2.13;;;17.50;95.00;;;;;;4905729;29;20048;-60
2023/07/14 02:07:04;;;;;;;3.25;2.42;;;17.40;95.20;;;;;;4923333;29;20099;-60
2023/07/14 02:09:32;;;;;;;2.92;2.25;;;17.30;95.30;;;;;;4902813;29;20040;-60
2023/07/14 02:12:05;;;;;;;4.13;2.60;;;17.20;95.50;;;;;;4905843;29;20035;-60
2023/07/14 02:14:42;;;;;;;3.45;2.33;;;17.30;95.60;;;;;;4907426;29;20044;-59
2023/07/14 02:17:17;;;;;;;2.95;2.42;;;17.30;95.70;;;;;;4926354;29;20046;-60
2023/07/14 02:19:43;;;;;;;2.30;2.10;;;17.30;95.50;;;;;;4901869;29;20032;-60
2023/07/14 02:22:09;;;;;;;3.55;2.20;;;17.40;95.60;;;;;;4911065;29;20028;-60
2023/07/14 02:24:35;;;;;;;2.13;1.70;;;17.40;95.60;;;;;;4901243;29;20039;-60
2023/07/14 02:27:04;;;;;;;3.30;2.00;;;17.40;95.60;;;;;;4921927;29;20028;-60
2023/07/14 02:29:31;;;;;;;3.22;2.33;;;17.40;95.60;;;;;;4900482;29;20610;-59
2023/07/14 02:32:03;;;;;;;3.08;1.95;;;17.50;95.60;;;;;;4926809;29;20040;-60
2023/07/14 02:34:36;;;;;;;3.60;2.45;;;17.50;95.30;;;;;;4923647;29;20074;-60
2023/07/14 02:38:00;;;;;;;2.67;2.28;;;17.50;95.30;;;;;;4907837;29;20032;-60
2023/07/14 02:40:37;;;;;;;2.53;2.00;;;17.50;95.20;;;;;;4918694;29;20040;-59
2023/07/14 02:43:08;;;;;;;2.33;1.80;;;17.60;95.20;;;;;;4908366;29;20142;-59
2023/07/14 02:45:40;;;;;;;3.28;2.50;;;17.60;95.10;;;;;;4920962;29;20133;-59
2023/07/14 02:48:12;;;;;;;4.35;2.28;;;17.60;94.90;;;;;;4916974;29;20531;-59
2023/07/14 02:50:38;;;;;;;2.28;1.98;;;17.50;94.90;;;;;;4908917;29;20036;-60
2023/07/14 02:53:04;;;;;;;3.05;2.33;;;17.50;95.00;;;;;;4910534;29;20035;-59
2023/07/14 02:55:30;;;;;;;2.40;2.15;;;17.40;95.10;;;;;;4923844;29;20510;-59
2023/07/14 02:57:55;;;;;;;2.42;1.80;;;17.40;95.00;;;;;;4901502;29;20658;-60
2023/07/14 03:00:21;;;;;;;2.72;2.20;;;17.30;95.10;;;;;;4904054;29;20116;-60
2023/07/14 03:02:47;;;;;;;2.45;1.83;;;17.20;95.40;;;;;;4918275;29;20039;-59
2023/07/14 03:05:13;;;;;;;3.13;1.90;;;17.10;95.80;;;;;;4901537;29;20121;-60
2023/07/14 03:07:39;;;;;;;3.20;2.30;;;17.10;96.40;;;;;;4924976;29;20031;-60
2023/07/14 03:10:08;;;;;;;2.35;1.88;;;17.20;96.40;;;;;;4925819;29;20034;-60
2023/07/14 03:12:34;;;;;;;2.60;2.10;;;17.20;96.30;;;;;;4907181;29;20819;-59
2023/07/14 03:15:00;;;;;;;2.60;1.90;;;17.30;96.10;;;;;;4922826;29;20040;-60
2023/07/14 03:17:26;;;;;;;4.05;2.13;;;17.40;96.00;;;;;;4922115;29;20102;-60
2023/07/14 03:19:52;;;;;;;3.75;1.90;;;17.50;95.70;;;;;;4903035;29;20119;-60
2023/07/14 03:22:18;;;;;;;3.78;1.75;;;17.50;95.10;;;;;;4920063;29;20035;-60
2023/07/14 03:24:43;;;;;;;3.42;1.98;;;17.50;94.80;;;;;;4903369;29;20032;-59
2023/07/14 03:27:09;;;;;;;2.90;1.95;;;17.40;94.50;;;;;;4925642;29;20023;-60
2023/07/14 03:29:36;;;;;;;4.00;2.10;;;17.30;94.70;;;;;;4923303;29;20400;-60
2023/07/14 03:32:01;;;;;;;4.20;2.45;;;17.20;95.10;;;;;;4923448;29;20028;-59
2023/07/14 03:34:27;;;;;;;2.90;2.00;;;17.20;95.40;;;;;;4908192;29;20024;-60
2023/07/14 03:36:53;;;;;;;3.55;2.22;;;17.10;95.30;;;;;;4908009;29;20024;-60
2023/07/14 03:39:26;;;;;;;3.40;2.38;;;17.10;95.30;;;;;;4907065;29;20051;-60
2023/07/14 03:41:54;;;;;;;2.55;2.25;;;17.00;95.60;;;;;;4922732;29;20031;-60
2023/07/14 03:44:21;;;;;;;3.80;2.40;;;16.80;95.80;;;;;;4925332;29;20043;-60
2023/07/14 03:46:47;;;;;;;2.67;2.47;;;16.80;96.30;;;;;;4906246;29;20104;-59
2023/07/14 03:49:13;;;;;;;3.60;2.47;;;16.70;96.60;;;;;;4923667;29;20051;-60
2023/07/14 03:51:40;;;;;;;3.20;2.17;;;16.70;97.00;;;;;;4920189;29;20036;-60
2023/07/14 03:54:06;;;;;;;3.65;2.90;;;16.70;97.00;;;;;;4904101;29;20035;-59
2023/07/14 03:56:32;;;;;;;3.65;2.75;;;16.70;97.10;;;;;;4917659;29;20496;-60
2023/07/14 03:58:58;;;;;;;3.00;2.53;;;16.80;97.40;;;;;;4901605;29;20036;-59
2023/07/14 04:01:25;;;;;;;4.97;2.70;;;16.80;97.40;;;;;;4925837;29;20040;-60
2023/07/14 04:03:51;;;;;;;2.63;2.40;;;16.90;97.40;;;;;;4906334;29;20024;-59
2023/07/14 04:06:17;;;;;;;3.03;2.45;;;16.90;97.50;;;;;;4907571;29;20814;-59
2023/07/14 04:08:44;;;;;;;4.28;3.13;;;16.90;97.50;;;;;;4920593;29;20032;-60
2023/07/14 04:11:12;;;;;;;3.03;2.30;;;16.90;97.30;;;;;;4923489;29;20040;-59
2023/07/14 04:13:38;;;;;;;3.33;2.50;;;16.90;97.50;;;;;;4899756;29;20496;-59
2023/07/14 04:16:07;;;;;;;3.33;2.10;;;16.90;97.60;;;;;;4919420;29;20050;-59
2023/07/14 04:18:34;;;;;;;4.55;2.65;;;17.00;97.60;;;;;;4922701;29;20035;-59
2023/07/14 04:21:10;;;;;;;3.97;2.60;;;17.00;97.60;;;;;;4923005;29;20567;-60
2023/07/14 04:23:36;;;;;;;3.38;2.40;;;17.10;97.40;;;;;;4922092;29;20067;-60
2023/07/14 04:26:02;;;;;;;2.95;2.30;;;17.10;97.50;;;;;;4924243;29;20031;-59
2023/07/14 04:28:29;;;;;;;4.70;2.25;;;17.20;97.50;;;;;;4923875;29;20054;-59
2023/07/14 04:30:56;;;;;;;2.78;2.20;;;17.30;97.20;;;;;;4923101;29;20050;-60
2023/07/14 04:33:22;;;;;;;3.90;2.30;;;17.30;97.00;;;;;;4921205;29;20078;-59
2023/07/14 04:35:51;;;;;;;4.20;2.50;;;17.40;97.10;;;;;;4928120;29;20039;-59
2023/07/14 04:38:17;;;;;;;3.28;2.75;;;17.40;97.20;;;;;;4928905;29;20653;-60
2023/07/14 04:40:44;;;;;;;6.10;2.97;;;17.50;97.00;;;;;;4926295;29;20059;-59
2023/07/14 04:43:11;;;;;;;4.13;2.85;;;17.60;96.90;;;;;;4923980;29;20679;-59
2023/07/14 04:45:41;;;;;;;4.07;3.30;;;17.70;96.50;;;;;;4923889;29;20038;-60
2023/07/14 04:48:09;;;;;;;2.70;2.15;;;17.80;96.20;;;;;;4923677;29;20032;-60
2023/07/14 04:50:36;;;;;;;2.83;2.40;;;17.80;96.20;;;;;;4919755;29;20046;-59
2023/07/14 04:53:05;;;;;;;3.60;2.45;;;17.80;96.40;;;;;;4925485;29;20031;-59
2023/07/14 04:55:45;;;;;;;5.55;2.53;;;17.80;96.40;;;;;;4925495;29;20141;-60
2023/07/14 04:58:13;;;;;;;5.88;2.95;;;17.90;96.40;;;;;;4925483;29;20787;-59
2023/07/14 05:00:41;;;;;;;4.15;2.90;;;17.90;96.00;;;;;;4924441;29;20050;-59
2023/07/14 05:03:07;;;;;;;2.45;2.20;;;18.00;96.10;;;;;;4924948;29;20059;-60
2023/07/14 05:05:33;;;;;;;3.63;2.83;;;18.20;96.10;;;;;;4921523;29;20503;-59
2023/07/14 05:08:00;;;;;;;3.17;2.40;;;18.30;96.30;;;;;;4922257;29;20032;-60
2023/07/14 05:10:27;;;;;;;2.92;2.53;;;18.40;95.70;;;;;;4925569;29;20039;-60
2023/07/14 05:12:55;;;;;;;2.88;2.65;;;18.40;95.80;;;;;;4926029;29;20785;-59
2023/07/14 05:15:22;;;;;;;3.25;2.40;;;18.40;96.00;;;;;;4923437;29;20096;-60
2023/07/14 05:17:49;;;;;;;3.67;2.85;;;18.40;96.20;;;;;;4926889;29;20492;-59
2023/07/14 05:20:17;;;;;;;3.60;2.40;;;18.40;96.00;;;;;;4925215;29;20035;-60
2023/07/14 05:22:47;;;;;;;3.13;2.78;;;18.50;96.50;;;;;;4923614;29;20784;-60
2023/07/14 05:25:15;;;;;;;4.53;2.42;;;18.70;95.40;;;;;;4922574;29;20032;-60
2023/07/14 05:27:43;;;;;;;2.72;2.40;;;18.90;94.90;;;;;;4922096;29;20043;-59
2023/07/14 05:30:12;;;;;;;5.30;2.55;;;19.00;95.10;;;;;;4912182;29;20039;-60
2023/07/14 05:32:38;;;;;;;8.38;3.17;;;19.10;95.10;;;;;;4925568;29;20045;-59
2023/07/14 05:35:04;;;;;;;4.88;2.50;;;19.20;95.00;;;;;;4926231;29;20432;-59
2023/07/14 05:37:30;;;;;;;4.57;2.83;;;19.20;94.80;;;;;;4922238;29;20115;-59
2023/07/14 05:39:56;;;;;;;3.10;2.30;;;19.30;94.40;;;;;;4925424;29;20027;-59
2023/07/14 05:42:21;;;;;;;3.47;2.72;;;19.40;94.00;;;;;;4920960;29;20878;-60
2023/07/14 05:44:47;;;;;;;4.97;3.08;;;19.50;93.60;;;;;;4919903;29;20520;-59
2023/07/14 05:47:13;;;;;;;4.72;2.85;;;19.60;93.50;;;;;;4928080;29;20123;-59
2023/07/14 05:49:39;;;;;;;5.47;3.13;;;19.80;92.50;;;;;;4926560;29;20063;-59
2023/07/14 05:52:09;;;;;;;4.22;2.70;;;19.60;92.80;;;;;;4925775;29;20066;-60
2023/07/14 05:54:35;;;;;;;3.63;2.50;;;19.70;92.90;;;;;;4923319;29;20062;-60
2023/07/14 05:57:01;;;;;;;3.33;2.47;;;19.80;93.10;;;;;;4923582;29;20040;-60
2023/07/14 05:59:27;;;;;;;5.53;2.20;;;19.90;92.90;;;;;;4920610;29;20044;-60
2023/07/14 06:01:53;;;;;;;3.75;2.40;;;20.00;93.20;;;;;;4920095;29;20032;-59
2023/07/14 06:04:19;;;;;;;5.07;2.45;;;20.30;92.70;;;;;;4924744;29;20119;-60
2023/07/14 06:06:45;;;;;;;4.57;2.85;;;20.50;91.90;;;;;;4926233;29;20040;-60
2023/07/14 06:09:13;;;;;;;4.05;2.22;;;20.70;91.50;;;;;;4925770;29;20069;-60
2023/07/14 06:11:40;;;;;;;2.90;2.10;;;20.80;91.50;;;;;;4924773;29;20035;-60
2023/07/14 06:14:06;;;;;;;3.35;2.50;;;20.90;91.20;;;;;;4923586;29;20035;-60
2023/07/14 06:16:32;;;;;;;4.10;2.30;;;21.00;90.70;;;;;;4923119;29;20150;-59
2023/07/14 06:18:58;;;;;;;4.28;2.40;;;21.00;91.00;;;;;;4920805;29;20047;-59
2023/07/14 06:21:24;;;;;;;4.03;2.95;;;21.00;90.90;;;;;;4924422;29;20036;-60
2023/07/14 06:23:49;;;;;;;3.10;2.42;;;21.10;90.60;;;;;;4926436;29;20023;-60
2023/07/14 06:26:15;;;;;;;3.30;2.47;;;21.20;90.40;;;;;;4925850;29;20496;-60
2023/07/14 06:28:42;;;;;;;7.53;2.75;;;21.30;90.30;;;;;;4923066;29;20054;-60
2023/07/14 06:31:11;;;;;;;3.55;2.55;;;21.40;89.80;;;;;;4923654;29;20081;-60
2023/07/14 06:33:37;;;;;;;3.63;2.33;;;21.30;90.10;;;;;;4920037;29;20036;-60
2023/07/14 06:36:03;;;;;;;3.53;2.42;;;21.30;90.00;;;;;;4910287;29;20551;-60
2023/07/14 06:38:30;;;;;;;3.10;2.47;;;21.30;90.10;;;;;;4920934;29;20040;-60
2023/07/14 06:41:00;;;;;;;3.58;2.72;;;21.30;90.10;;;;;;4926427;29;20079;-59
2023/07/14 06:43:27;;;;;;;3.50;2.13;;;21.30;89.40;;;;;;4922847;29;20803;-59
2023/07/14 06:45:54;;;;;;;5.90;2.33;;;21.30;89.80;;;;;;4923525;29;20420;-60
2023/07/14 06:48:20;;;;;;;3.10;2.60;;;21.40;88.80;;;;;;4922949;29;20063;-60
2023/07/14 06:50:46;;;;;;;2.72;2.30;;;21.40;88.00;;;;;;4920119;29;20080;-59
2023/07/14 06:53:12;;;;;;;2.92;1.88;;;21.30;88.50;;;;;;4921899;29;20050;-60
2023/07/14 06:55:39;;;;;;;4.00;2.20;;;21.40;88.70;;;;;;4917062;29;20130;-60
2023/07/14 06:58:06;;;;;;;3.13;1.88;;;21.40;88.70;;;;;;4926793;29;20132;-60
2023/07/14 07:00:33;;;;;;;2.60;1.90;;;21.50;87.70;;;;;;4925572;29;20752;-60
2023/07/14 07:03:00;;;;;;;4.80;2.17;;;21.60;87.00;;;;;;4924034;29;20028;-60
2023/07/14 07:05:26;;;;;;;3.20;2.30;;;21.80;85.90;;;;;;4923151;29;20032;-60
2023/07/14 07:07:53;;;;;;;2.83;2.10;;;21.80;86.40;;;;;;4921408;29;20036;-60
2023/07/14 07:10:19;;;;;;;2.50;1.95;;;21.90;85.90;;;;;;4920494;29;20072;-60
2023/07/14 07:12:45;;;;;;;2.33;1.90;;;22.00;86.60;;;;;;4919587;29;20051;-60
2023/07/14 07:15:11;;;;;;;2.42;1.90;;;22.00;85.10;;;;;;4923278;29;20039;-60
2023/07/14 07:17:38;;;;;;;3.50;1.90;;;22.00;85.80;;;;;;4925695;29;20036;-60
2023/07/14 07:20:08;;;;;;;3.50;2.03;;;22.00;86.20;;;;;;4925855;29;20039;-60
2023/07/14 07:22:35;;;;;;;4.25;1.45;;;22.00;84.20;;;;;;4924076;29;20761;-60
2023/07/14 07:25:01;;;;;;;1.92;1.48;;;21.90;84.10;;;;;;4922321;29;20039;-60
2023/07/14 07:27:28;;;;;;;3.25;1.70;;;21.80;84.20;;;;;;4919709;29;20403;-60
2023/07/14 07:29:54;;;;;;;2.13;1.63;;;21.90;84.70;;;;;;4919173;29;20040;-59
2023/07/14 07:32:19;;;;;;;1.77;1.67;;;22.00;83.40;;;;;;4923207;29;20150;-60
2023/07/14 07:34:45;;;;;;;2.40;1.70;;;22.20;83.40;;;;;;4925169;29;20047;-60
2023/07/14 07:37:11;;;;;;;4.15;1.73;;;22.30;83.10;;;;;;4924560;29;20122;-60
2023/07/14 07:39:37;;;;;;;3.30;1.60;;;22.40;81.60;;;;;;4921814;29;20411;-60
2023/07/14 07:42:04;;;;;;;7.30;1.60;;;22.40;81.20;;;;;;4922481;29;20028;-60
2023/07/14 07:44:30;;;;;;;2.75;1.48;;;22.40;81.30;;;;;;4919885;29;20494;-59
2023/07/14 07:46:56;;;;;;;3.42;1.52;;;22.40;81.60;;;;;;4922540;29;20129;-60
2023/07/14 07:49:22;;;;;;;2.15;1.13;;;22.50;81.90;;;;;;4919791;29;20040;-60
2023/07/14 07:51:48;;;;;;;3.08;1.48;;;22.60;81.00;;;;;;4926047;29;20051;-59
2023/07/14 07:54:14;;;;;;;1.60;1.50;;;22.80;79.50;;;;;;4924657;29;20127;-60
2023/07/14 07:56:42;;;;;;;2.40;1.25;;;22.80;79.80;;;;;;4921964;29;20047;-60
2023/07/14 07:59:15;;;;;;;5.47;1.75;;;22.90;79.90;;;;;;4922815;29;20100;-60
2023/07/14 08:01:42;;;;;;;2.85;1.48;;;22.90;78.10;;;;;;4921840;29;20052;-60
2023/07/14 08:04:09;;;;;;;4.40;1.60;;;22.90;78.30;;;;;;4902562;29;20047;-60
2023/07/14 08:06:38;;;;;;;2.72;1.50;;;22.80;78.20;;;;;;4919903;29;20781;-60
2023/07/14 08:09:06;;;;;;;3.67;1.67;;;22.80;79.40;;;;;;4910222;29;20608;-60
2023/07/14 08:11:33;;;;;;;2.42;1.75;;;22.80;78.50;;;;;;4929597;29;20127;-60
2023/07/14 08:14:01;;;;;;;5.45;1.90;;;22.80;77.10;;;;;;4927052;29;20835;-60
2023/07/14 08:16:30;;;;;;;1.77;1.30;;;22.80;77.60;;;;;;4925497;29;20052;-60
2023/07/14 08:18:57;;;;;;;3.08;1.42;;;22.80;78.60;;;;;;4924413;29;20036;-60
2023/07/14 08:21:22;;;;;;;4.38;1.50;;;22.90;78.80;;;;;;4922944;29;20103;-60
2023/07/14 08:23:48;;;;;;;2.08;1.45;;;23.00;77.70;;;;;;4921008;29;20040;-60
2023/07/14 08:26:14;;;;;;;1.40;1.30;;;23.00;77.50;;;;;;4926283;29;20048;-60
2023/07/14 08:28:40;;;;;;;3.40;1.40;;;23.10;77.20;;;;;;4928059;29;20038;-60
2023/07/14 08:31:10;;;;;;;2.75;1.38;;;23.20;76.10;;;;;;4927642;29;20041;-59
2023/07/14 08:33:36;;;;;;;2.80;1.70;;;23.30;76.40;;;;;;4924827;29;20035;-59
2023/07/14 08:36:03;;;;;;;4.78;1.95;;;23.40;75.00;;;;;;4925315;29;20091;-60
2023/07/14 08:38:31;;;;;;;2.70;1.80;;;23.00;73.70;;;;;;4922214;29;20637;-60
2023/07/14 08:41:27;;;;;;;1.90;1.60;;;22.80;75.00;;;;;;4922277;29;20803;-59
2023/07/14 08:43:59;;;;;;;3.90;1.70;;;22.70;75.40;;;;;;4927849;29;20661;-60
2023/07/14 08:46:49;;;;;;;3.00;1.70;;;22.60;76.00;;;;;;4927417;29;20474;-62
2023/07/14 08:49:30;;;;;;;3.13;1.83;;;22.50;77.40;;;;;;4896970;29;20046;-62
2023/07/14 08:52:01;;;;;;;3.45;1.30;;;22.50;76.00;;;;;;4910244;29;20046;-62
2023/07/14 08:54:44;;;;;;;4.82;1.85;;;22.50;75.70;;;;;;4923276;29;20043;-62
2023/07/14 08:57:17;;;;;;;3.70;1.85;;;22.70;76.20;;;;;;4922797;29;20044;-61
2023/07/14 08:59:45;;;;;;;2.45;1.70;;;22.80;75.50;;;;;;4918893;29;20036;-62
2023/07/14 09:02:47;;;;;;;2.42;1.70;;;22.60;76.40;;;;;;4928814;29;20035;-62
2023/07/14 09:05:25;;;;;;;4.97;1.90;;;22.70;77.10;;;;;;4918506;29;20436;-62
2023/07/14 09:07:52;;;;;;;4.03;1.58;;;23.00;74.90;;;;;;4924772;29;20168;-62
2023/07/14 09:10:18;;;;;;;2.05;1.75;;;23.10;74.30;;;;;;4925281;29;20051;-62
2023/07/14 09:12:59;;;;;;;4.63;1.77;;;23.10;75.20;;;;;;4905444;29;20509;-61
2023/07/14 09:15:26;;;;;;;2.33;1.42;;;23.20;75.00;;;;;;4920649;29;20182;-62
2023/07/14 09:18:14;;;;;;;1.95;1.33;;;23.30;73.90;;;;;;4924299;29;20044;-62
2023/07/14 09:20:58;;;;;;;3.90;1.80;;;23.40;74.70;;;;;;4924249;29;20031;-62
2023/07/14 09:23:45;;;;;;;3.90;2.00;;;23.60;72.60;;;;;;4927214;29;20038;-62
2023/07/14 09:26:34;;;;;;;2.65;1.90;;;23.80;72.10;;;;;;4922131;29;20045;-62
2023/07/14 09:29:28;;;;;;;2.90;1.88;;;23.90;73.20;;;;;;4924370;29;20519;-62
2023/07/14 09:32:01;;;;;;;4.95;2.10;;;23.90;72.30;;;;;;4909035;29;20051;-62
2023/07/14 09:34:38;;;;;;;2.67;1.52;;;24.00;71.70;;;;;;4919301;29;20094;-62
2023/07/14 09:37:19;;;;;;;4.35;1.70;;;24.10;71.40;;;;;;4924727;29;20071;-62
2023/07/14 09:39:46;;;;;;;3.78;1.50;;;24.10;69.80;;;;;;4926291;29;20539;-62
2023/07/14 09:42:27;;;;;;;2.92;1.70;;;24.10;69.90;;;;;;4927023;29;20024;-62
2023/07/14 09:45:08;;;;;;;3.97;1.70;;;24.20;69.10;;;;;;4923799;29;20040;-62
2023/07/14 09:47:35;;;;;;;4.50;1.70;;;24.20;70.20;;;;;;4921607;29;20039;-62
2023/07/14 09:50:01;;;;;;;3.25;1.90;;;24.30;69.10;;;;;;4922492;29;20035;-62
2023/07/14 09:52:28;;;;;;;7.30;1.92;;;24.30;68.40;;;;;;4917849;29;20035;-62
2023/07/14 09:54:59;;;;;;;3.63;1.70;;;24.10;67.90;;;;;;4925642;29;20040;-62
2023/07/14 09:57:28;;;;;;;3.10;1.95;;;24.00;68.40;;;;;;4926869;29;20032;-62
2023/07/14 10:00:13;;;;;;;2.35;1.40;;;23.90;68.70;;;;;;4923147;29;20096;-61
2023/07/14 10:02:40;;;;;;;2.47;1.60;;;24.00;68.20;;;;;;4922894;29;20040;-61
2023/07/14 10:05:30;;;;;;;2.17;1.58;;;24.00;70.20;;;;;;4923352;29;20114;-61
2023/07/14 10:07:56;;;;;;;3.13;1.60;;;24.10;71.20;;;;;;4923079;29;20205;-62
2023/07/14 10:10:26;;;;;;;3.75;1.60;;;24.30;67.90;;;;;;4921652;29;20190;-61
2023/07/14 10:12:52;;;;;;;2.83;1.77;;;24.40;66.60;;;;;;4927058;29;20046;-61
2023/07/14 10:15:34;;;;;;;3.15;1.38;;;24.50;68.00;;;;;;4926489;29;20796;-61
2023/07/14 10:18:06;;;;;;;2.78;1.77;;;24.50;66.10;;;;;;4924922;29;20407;-61
2023/07/14 10:20:33;;;;;;;2.55;1.63;;;24.50;66.70;;;;;;4922076;29;20035;-61
2023/07/14 10:23:00;;;;;;;2.42;1.50;;;24.40;66.70;;;;;;4921728;29;20031;-61
2023/07/14 10:25:30;;;;;;;3.00;1.80;;;24.40;68.00;;;;;;4922572;29;20051;-61
2023/07/14 10:28:05;;;;;;;8.75;1.75;;;24.40;67.00;;;;;;4919708;29;20823;-61
2023/07/14 10:30:44;;;;;;;2.53;1.60;;;24.40;66.80;;;;;;4923408;29;20089;-62
2023/07/14 10:33:21;;;;;;;5.10;1.90;;;24.30;68.00;;;;;;4922278;29;20048;-62
2023/07/14 10:36:02;;;;;;;2.78;1.63;;;24.40;69.20;;;;;;4922839;29;20118;-61
2023/07/14 10:38:35;;;;;;;1.98;1.50;;;24.50;67.00;;;;;;4923622;29;20079;-61
2023/07/14 10:41:08;;;;;;;5.53;2.03;;;24.50;67.70;;;;;;4922167;29;20115;-61
2023/07/14 10:43:36;;;;;;;2.45;1.70;;;24.60;69.30;;;;;;4918436;29;20044;-61
2023/07/14 10:46:09;;;;;;;2.28;1.67;;;24.70;65.50;;;;;;4920602;29;20119;-62
2023/07/14 10:48:47;;;;;;;2.70;1.63;;;24.70;65.10;;;;;;4923657;29;20044;-61
2023/07/14 10:51:27;;;;;;;2.65;1.52;;;24.70;65.50;;;;;;4923789;29;20504;-61
2023/07/14 10:54:09;;;;;;;3.35;1.70;;;24.90;66.80;;;;;;4925106;29;20045;-61
2023/07/14 10:56:57;;;;;;;4.53;1.83;;;25.10;64.80;;;;;;4921499;29;20036;-62
2023/07/14 10:59:48;;;;;;;2.72;1.58;;;25.20;65.70;;;;;;4902951;29;20046;-61
2023/07/14 11:02:22;;;;;;;2.40;1.27;;;25.50;62.30;;;;;;4916872;29;20706;-62
2023/07/14 11:05:00;;;;;;;3.05;1.65;;;25.50;61.80;;;;;;4925149;29;20032;-61
2023/07/14 11:07:31;;;;;;;4.68;1.73;;;25.60;61.00;;;;;;4926445;29;20670;-61
2023/07/14 11:10:03;;;;;;;2.55;1.70;;;25.60;59.70;;;;;;4924087;29;20047;-61
2023/07/14 11:12:30;;;;;;;4.60;1.60;;;25.60;61.10;;;;;;4923888;29;20175;-61
2023/07/14 11:15:35;;;;;;;2.75;1.58;;;25.70;59.90;;;;;;4924026;29;20075;-62
2023/07/14 11:18:01;;;;;;;1.73;1.40;;;25.80;60.40;;;;;;4915090;29;20047;-62
2023/07/14 11:20:39;;;;;;;2.22;1.70;;;25.90;60.30;;;;;;4920178;29;20827;-61
2023/07/14 11:23:08;;;;;;;3.85;1.45;;;25.90;59.10;;;;;;4905938;29;20027;-61
2023/07/14 11:25:45;;;;;;;2.65;1.70;;;26.00;59.60;;;;;;4925334;29;20036;-61
2023/07/14 11:28:36;;;;;;;2.65;1.48;;;25.90;59.30;;;;;;4922996;29;20044;-61
2023/07/14 11:31:14;;;;;;;3.67;1.42;;;25.80;57.70;;;;;;4922909;29;20042;-62
2023/07/14 11:33:50;;;;;;;6.65;1.58;;;25.80;57.40;;;;;;4919342;29;20126;-61
2023/07/14 11:36:24;;;;;;;;;;;25.80;57.80;;;;;;4917483;29;20035;-61
2023/07/14 11:39:14;;;;;;;2.55;1.73;;;25.90;56.50;;;;;;4917800;29;19935;-61
2023/07/14 11:41:41;;;;;;;5.03;1.92;;;26.00;58.40;;;;;;4924591;29;20031;-61
2023/07/14 11:44:15;;;;;;;2.80;1.85;;;26.10;57.30;;;;;;4923996;29;20490;-61
2023/07/14 11:46:43;;;;;;;3.47;1.90;;;26.10;57.80;;;;;;4921755;29;20564;-62
2023/07/14 11:49:26;;;;;;;4.13;2.13;;;26.10;57.90;;;;;;4921585;29;20492;-61
2023/07/14 11:51:56;;;;;;;3.75;1.90;;;26.30;56.70;;;;;;4919413;29;20048;-61
2023/07/14 11:54:53;;;;;;;2.53;1.73;;;26.20;55.40;;;;;;4917974;29;20031;-61
2023/07/14 11:57:20;;;;;;;5.78;2.38;;;26.20;57.00;;;;;;4919896;29;20039;-61
2023/07/14 12:00:00;;;;;;;2.85;2.05;;;26.40;57.00;;;;;;4923949;29;20035;-61
2023/07/14 12:02:48;;;;;;;2.22;1.70;;;26.60;57.00;;;;;;4923644;29;20039;-61
2023/07/14 12:05:13;;;;;;;3.10;2.15;;;26.80;56.50;;;;;;4921875;29;20122;-61
2023/07/14 12:08:05;;;;;;;4.70;2.00;;;27.00;56.70;;;;;;4919128;29;20036;-61
2023/07/14 12:10:42;;;;;;;2.58;1.77;;;27.00;55.50;;;;;;4919152;29;20114;-62
2023/07/14 12:13:33;;;;;;;3.85;2.00;;;26.80;55.20;;;;;;4918327;29;20396;-61
2023/07/14 12:16:02;;;;;;;4.55;1.70;;;26.70;54.30;;;;;;4921481;29;20027;-61
2023/07/14 12:18:35;;;;;;;3.33;1.67;;;26.80;53.80;;;;;;4924466;29;20131;-61
2023/07/14 12:21:14;;;;;;;3.33;1.90;;;26.70;53.10;;;;;;4923022;29;20027;-61
2023/07/14 12:23:41;;;;;;;7.45;2.60;;;26.50;53.30;;;;;;4920103;29;20024;-61
2023/07/14 12:26:15;;;;;;;4.72;2.10;;;26.40;55.40;;;;;;4922418;29;20140;-61
2023/07/14 12:28:42;;;;;;;2.92;1.60;;;26.30;54.10;;;;;;4916951;29;20489;-61
2023/07/14 12:31:17;;;;;;;4.25;1.75;;;26.30;54.30;;;;;;4918504;29;20047;-61
2023/07/14 12:33:45;;;;;;;4.30;2.03;;;26.30;55.00;;;;;;4918447;29;20043;-61
2023/07/14 12:36:21;;;;;;;3.22;1.55;;;26.50;55.90;;;;;;4907001;29;20059;-61
2023/07/14 12:38:48;;;;;;;2.97;1.73;;;26.50;54.20;;;;;;4921985;29;20032;-61
2023/07/14 12:41:16;;;;;;;2.58;1.80;;;26.60;54.00;;;;;;4921540;29;20074;-61
2023/07/14 12:43:45;;;;;;;5.00;2.00;;;26.70;54.90;;;;;;4918271;29;20032;-61
2023/07/14 12:46:21;;;;;;;4.45;2.08;;;26.70;53.20;;;;;;4922765;29;20035;-62
2023/07/14 12:48:48;;;;;;;2.95;1.98;;;26.60;52.90;;;;;;4919720;29;20036;-61
2023/07/14 12:51:18;;;;;;;2.67;1.75;;;26.60;54.80;;;;;;4921321;29;20037;-61
2023/07/14 12:54:09;;;;;;;4.25;1.98;;;26.60;54.70;;;;;;4927087;29;20448;-61
2023/07/14 12:56:35;;;;;;;4.90;1.90;;;26.70;54.30;;;;;;4915803;29;20044;-61
2023/07/14 12:59:06;;;;;;;3.10;2.00;;;26.80;53.80;;;;;;4925408;29;20520;-61
2023/07/14 13:01:33;;;;;;;3.42;2.38;;;26.90;54.90;;;;;;4924223;29;20036;-61
2023/07/14 13:04:02;;;;;;;4.88;1.58;;;27.00;54.90;;;;;;4922040;29;20031;-60
2023/07/14 13:06:28;;;;;;;2.22;1.80;;;26.90;52.90;;;;;;4919763;29;20116;-61